Go Pro

Franklin Investment Grade Corporate ETF (FLCO) Institutional Ownership

Franklin Investment Grade Corporate ETF logo
$20.85 -0.01 (-0.04%)
As of 02:47 PM Eastern
This is a fair market value price provided by Massive. Learn more.

Institutional Ownership Changes (13F Filings) for Franklin Investment Grade Corporate ETF (NYSEARCA:FLCO)

Number of
Institutional Buyers
(last 12 months)
25
Total
Institutional Inflows
(last 12 months)
$26.10M
Number of
Institutional Sellers
(last 12 months)
4
Total
Institutional Outflows
(last 12 months)
$16.48M
Get FLCO Insider Trade Alerts

Want to know when executives and insiders are buying or selling Franklin Investment Grade Corporate ETF stock? Sign up for InsiderTrades.com's daily newsletter to get the latest insider transactions delivered to your inbox daily.

SMS is currently available in Australia, Belgium, Canada, France, Germany, Ireland, Italy, New Zealand, the Netherlands, Singapore, South Africa, Spain, Switzerland, the United Kingdom, and the United States. By entering your phone number and clicking the sign-up button, you agree to receive periodic text messages from MarketBeat at the phone number you submitted, including texts that may be sent using an automatic telephone dialing system. Message and data rates may apply. Message frequency will vary. Messages will consist of stock alerts, news stories, and partner advertisements/offers. Consent is not a condition of the purchase of any goods or services. Text HELP for help/customer support. Unsubscribe at any time by replying "STOP" to any text message that you receive from MarketBeat or by visiting our mailing preferences page. Read our full terms of service and privacy policy.
Skip Chart & View Institutional Buying and Selling Data

FLCO Institutional Buying and Selling by Quarter

Franklin Investment Grade Corporate ETF Major Shareholders & Ownership History

Reporting DateMajor Shareholder NameShares HeldMarket Value% of PortfolioQuarterly Change in SharesOwnership in CompanyDetails
9/2/2026 Citadel Advisors LLC176,968$3.79M0.0%+49.5%0.669%
5/19/2026 Bank of America Corp DE989,730$21.20M0.0%+3.4%3.592%
5/14/2026 Compound Planning Inc.56,306$1.21M0.0%+22.2%0.204%
5/13/2026 Cetera Investment Advisers114,513$2.45M0.0%+25.3%0.416%
5/5/2026 Bank of New York Mellon Corp250,706$5.37M0.0%+9.7%0.910%
5/5/2026 Sanctuary Advisors LLC419,177$8.98M0.0%+10.3%1.522%
4/21/2026 Sequent Planning LLC129,939$2.78M0.7%+11.2%0.472%
2/19/2026 Compound Planning Inc.46,092$998K0.0%+9.1%0.176%
2/17/2026 Cetera Investment Advisers91,355$1.98M0.0%+161.0%0.349%
2/17/2026 Osaic Holdings Inc.8,420$182K0.0%-60.6%0.032%
2/17/2026 Royal Bank of Canada8,191$177K0.0%+30.0%0.031%
2/16/2026 MML Investors Services LLC60,468$1.31M0.0%+6.3%0.231%
2/13/2026 Kestra Advisory Services LLC2,687$58K0.0%N/A0.010%
2/12/2026Brooklyn Investment Group26,973$586K0.0%+40.5%0.103%
2/11/2026 LPL Financial LLC118,080$2.56M0.0%+9.9%0.452%
2/11/2026 Franklin Resources Inc.15,082,708$326.54M0.1%-3.8%57.678%
2/11/2026 O Shaughnessy Asset Management LLC48,015$1.04M0.0%+13.6%0.184%
2/9/2026 Hantz Financial Services Inc.5,369,885$116.26M1.7%+3.5%20.535%
2/6/2026 PNC Financial Services Group Inc.3,600$78K0.0%+35.3%0.014%
2/6/2026 HighTower Advisors LLC16,431$356K0.0%+6.2%0.063%
2/5/2026 Sequent Planning LLC116,821$2.53M0.6%+11.1%0.447%
2/3/2026 MGO One Seven LLC26,929$583K0.0%N/A0.103%
2/2/2026 Truist Financial Corp154,888$3.35M0.0%+16.1%0.592%
2/2/2026 Benjamin Edwards Inc.287,986$6.24M0.1%+3.5%1.101%
1/29/2026 Sanctuary Advisors LLC380,169$8.23M0.0%+36.4%1.459%
1/1/2026 JPMorgan Chase & Co.70,555$1.54M0.0%+9.6%0.274%
11/17/2025 Susquehanna International Group LLP60,107$1.32M0.0%-56.3%0.233%
11/17/2025 Flow Traders U.S. LLC75,849$1.66M0.1%N/A0.295%
11/17/2025 Citadel Advisors LLC206,417$4.52M0.0%+151.4%0.802%
11/17/2025 Bank of America Corp DE934,845$20.45M0.0%-0.8%3.630%
11/17/2025 Ameriprise Financial Inc.127,587$2.79M0.0%+36.9%0.495%
11/14/2025 Raymond James Financial Inc.61,855$1.35M0.0%+11.5%0.240%
11/14/2025Brooklyn Investment Group19,204$420K0.0%+433.7%0.075%
11/13/2025 Franklin Resources Inc.15,683,999$343.17M0.1%-0.4%60.909%
11/13/2025 Sequent Planning LLC105,152$2.30M0.7%N/A0.408%
11/10/2025 Compound Planning Inc.42,260$925K0.0%N/A0.164%
11/7/2025 JPMorgan Chase & Co.70,555$1.54M0.0%+9.6%0.274%
11/7/2025 PNC Financial Services Group Inc.2,660$58K0.0%+21.1%0.010%
11/5/2025 Envestnet Asset Management Inc.194,640$4.26M0.0%+3.7%0.752%
11/5/2025 Hantz Financial Services Inc.5,188,386$113.52M1.7%+1.5%20.032%
Three companies about to leapfrog Nvidia [And transform the entire industry] (Ad)

AI data centers have a power problem nobody likes to talk about. A single rack of computers can now use more electricity than an entire office building. One new chip, which looks more like a piece of plywood than a processor, delivers similar performance on a fraction of the power. Tech investing veteran George Gilder says that efficiency gap could decide who wins the next stage of AI. Gilder has identified three companies positioned around this power breakthrough, calling them the Trillion Dollar Triangle.tc pixel

See the three companies behind this AI power breakthrough now
11/3/2025 Truist Financial Corp133,390$2.92M0.0%+4.4%0.515%
10/23/2025 Benjamin Edwards Inc.278,192$6.09M0.1%+20.9%1.034%
9/4/2025 Osaic Holdings Inc.21,471$463K0.0%+2.6%0.076%
8/15/2025 MML Investors Services LLC62,574$1.35M0.0%+70.7%0.223%
8/15/2025 Benjamin Edwards Inc.230,054$4.97M0.1%-13.6%0.819%
8/15/2025 Bank of America Corp DE942,629$20.35M0.0%+7.6%3.355%
8/15/2025 Ameriprise Financial Inc.93,218$2.01M0.0%+4.2%0.332%
8/14/2025 Raymond James Financial Inc.55,495$1.20M0.0%-3.3%0.197%
8/12/2025 Franklin Resources Inc.15,744,173$339.84M0.1%+7.1%56.029%
8/12/2025 JPMorgan Chase & Co.64,390$1.39M0.0%+19.5%0.229%
8/11/2025 TD Waterhouse Canada Inc.5,060$109K0.0%N/A0.018%
8/8/2025 Cetera Investment Advisers25,625$553K0.0%+9.4%0.091%
8/4/2025 Hantz Financial Services Inc.5,110,382$110.31M1.8%+5.7%18.186%
8/1/2025 Envestnet Asset Management Inc.187,734$4.05M0.0%+22.5%0.668%
5/13/2025HighTower Advisors LLC15,566$333K0.0%-21.2%0.057%
5/9/2025PNC Financial Services Group Inc.2,444$52K0.0%+37.9%0.009%
5/7/2025LPL Financial LLC88,984$1.91M0.0%-13.8%0.325%
5/6/2025Cetera Investment Advisers23,422$502K0.0%N/A0.086%
5/5/2025OneAscent Financial Services LLC39,254$841K0.1%N/A0.144%
4/29/2025Envestnet Asset Management Inc.153,276$3.28M0.0%+5.5%0.560%
4/29/2025Bank of New York Mellon Corp139,738$2.99M0.0%+2.7%0.511%
2/17/2025Citadel Advisors LLC47,503$1.00M0.0%-15.1%0.279%
2/17/2025Bank of America Corp DE878,145$18.52M0.0%+91.6%5.150%
2/17/2025Benjamin Edwards Inc.266,105$5.61M0.1%+9.7%1.561%
2/17/2025Ameriprise Financial Inc.70,187$1.48M0.0%+20.7%0.412%
2/13/2025Raymond James Financial Inc.59,371$1.25M0.0%N/A0.348%
2/13/2025Envestnet Asset Management Inc.145,217$3.06M0.0%+10.6%0.852%
2/12/2025Franklin Resources Inc.15,079,949$318.01M0.1%-8.8%88.445%
2/12/2025JPMorgan Chase & Co.50,551$1.07M0.0%+3.8%0.296%
2/11/2025LPL Financial LLC103,255$2.18M0.0%+4.4%0.606%
2/7/2025HighTower Advisors LLC19,757$417K0.0%+28.4%0.116%
2/7/2025PNC Financial Services Group Inc.1,772$37K0.0%+40.3%0.010%
2/6/2025Raymond James Financial Inc.59,371$1.25M0.0%N/A0.348%
2/6/2025Atria Investments Inc48,906$1.03M0.0%+1.7%0.287%
2/5/2025Verus Capital Partners LLC20,211$426K0.0%-4.1%0.119%
2/4/2025Bank of New York Mellon Corp136,071$2.87M0.0%+4.6%0.798%
1/31/2025Truist Financial Corp123,121$2.60M0.0%+13.8%0.722%
1/31/2025Sanctuary Advisors LLC255,416$5.43M0.0%+9.1%1.498%
1/23/2025Hantz Financial Services Inc.4,198,482$88.54M1.5%+11.9%24.625%
12/26/2024JPMorgan Chase & Co.48,713$1.08M0.0%+13,393.9%0.286%
11/27/2024Franklin Resources Inc.16,526,553$359.37M0.1%+77.3%96.930%
11/25/2024Sanctuary Advisors LLC234,182$5M0.0%+1,942.2%1.374%
11/15/2024MML Investors Services LLC29,254$646K0.0%+44.0%0.172%
11/15/2024Jane Street Group LLC108,700$2.40M0.0%N/A0.638%
11/15/2024HighTower Advisors LLC15,385$340K0.0%-69.0%0.090%
11/15/2024Benjamin Edwards Inc.242,466$5.36M0.1%N/A1.422%
11/14/2024Flow Traders U.S. LLC85,931$1.90M0.1%N/A0.504%
11/14/2024Hantz Financial Services Inc.3,753,330$82.93M1.5%+19.8%22.014%
11/5/2024Verus Capital Partners LLC21,066$465K0.0%-6.2%0.124%
11/1/2024Atria Investments Inc48,094$1.06M0.0%N/A0.282%
They didn't warn anyone in 1971. This time someone is warning you. (Ad)

On August 15, 1971, Nixon interrupted prime-time television and ended the gold standard in 15 minutes - no debate, no vote, one executive order. Gold tripled within three years and climbed 20x over the following decade. Trump holds that same executive authority today, and his advisors are openly saying a reversal is on the table. There are two ways this plays out - both move gold in the same direction. A free briefing breaks down exactly what Nixon did, why Trump is positioned to act, and how to move your 401k into gold before any announcement - tax free.tc pixel

Request the free guide in 30 seconds and get positioned now
10/22/2024International Assets Investment Management LLC663,270$14.66M0.0%+119,623.8%3.890%
9/5/2024Sanctuary Advisors LLC11,467$238K0.0%N/A0.067%
8/21/2024Truist Financial Corp94,334$1.99M0.0%+8.0%0.553%
8/13/2024Benjamin F. Edwards & Company Inc.243,916$5.15M0.1%-1.5%1.431%
8/8/2024Envestnet Asset Management Inc.129,452$2.73M0.0%-28.1%0.759%
8/1/2024Verus Capital Partners LLC22,460$474K0.0%-3.4%0.132%
7/30/2024Hantz Financial Services Inc.3,132,298$66.12M1.3%N/A18.371%
7/16/2024Envestnet Portfolio Solutions Inc.12,814$271K0.0%-51.6%0.075%
5/7/2024Verus Capital Partners LLC23,242$496K0.1%-2.3%0.136%
5/6/2024Envestnet Portfolio Solutions Inc.26,473$565K0.0%+15.2%0.155%


FLCO Institutional Ownership - Frequently Asked Questions

During the previous two years, 33 institutional investors and hedge funds held shares of Franklin Investment Grade Corporate ETF. The most heavily invested institutionals were Franklin Resources Inc. ($326.54M), Hantz Financial Services Inc. ($116.26M), Bank of America Corp DE ($21.20M), International Assets Investment Management LLC ($14.66M), Sanctuary Advisors LLC ($8.98M), Benjamin Edwards Inc. ($6.24M), and Bank of New York Mellon Corp ($5.37M).Learn more on Franklin Investment Grade Corporate ETF's institutional investors.

Of the 31 institutional investors that purchased Franklin Investment Grade Corporate ETF's stock in the last 24 months, the following investors and hedge funds have bought the highest volume of shares: Franklin Resources Inc. ($8.25M), Hantz Financial Services Inc. ($1.60M), International Assets Investment Management LLC ($662.72K), Bank of America Corp DE ($519.04K), Sanctuary Advisors LLC ($395.82K), Benjamin Edwards Inc. ($324.04K), and Citadel Advisors LLC ($182.90K).

Institutional investors have bought a total of 1,201,679 shares in the last 24 months. This purchase volume represents approximately $26.10M in transactions.

The following institutional investors have sold Franklin Investment Grade Corporate ETF stock in the last 24 months: Franklin Resources Inc. ($661.47K), Susquehanna International Group LLP ($77.39K), Osaic Holdings Inc. ($12.97K), and Bank of America Corp DE ($7.78K).

Institutional investors have sold a total of 759,615 shares in the last 24 months. This volume of shares sold represents approximately $16.48M in transactions.



Institutional ownership data for NYSEARCA:FLCO is compiled from quarterly 13F filings submitted to the U.S. Securities and Exchange Commission (SEC), with the most recent received on 9/2/2026. New 13F filings are added each quarter as they're published.
From Our Partners